Time;durP1;ratioP1;P1;durP2;ratioP2;P2;SDS_P1;SDS_P2;PMS_P1;PMS_P2;Temp;Humidity;BMP_temperature;BMP_pressure;BME280_temperature;BME280_humidity;BME280_pressure;Samples;Min_cycle;Max_cycle;Signal;HPM_P1;HPM_P2
2021/12/20 00:00:14;;;;;;;84.22;21.58;;;;;;;;;;5022926;28;20029;-80
2021/12/20 00:02:42;;;;;;;101.40;23.52;;;;;;;;;;5022379;28;20041;-79
2021/12/20 00:05:09;;;;;;;109.90;23.67;;;;;;;;;;5027072;28;20022;-79
2021/12/20 00:07:35;;;;;;;105.30;25.60;;;;;;;;;;5007077;28;20033;-79
2021/12/20 00:10:02;;;;;;;116.10;28.45;;;;;;;;;;5006419;28;20030;-78
2021/12/20 00:12:28;;;;;;;109.72;30.85;;;;;;;;;;5028585;28;20026;-77
2021/12/20 00:14:54;;;;;;;101.53;29.35;;;;;;;;;;5021780;28;20038;-77
2021/12/20 00:17:21;;;;;;;117.63;32.78;;;;;;;;;;5025026;28;20030;-78
2021/12/20 00:19:47;;;;;;;113.22;33.58;;;;;;;;;;5013116;28;20033;-78
2021/12/20 00:22:13;;;;;;;118.05;34.00;;;;;;;;;;5030004;28;20103;-79
2021/12/20 00:24:40;;;;;;;112.47;34.88;;;;;;;;;;5032424;28;20033;-80
2021/12/20 00:27:08;;;;;;;123.97;34.67;;;;;;;;;;5032056;28;20068;-79
2021/12/20 00:29:37;;;;;;;125.40;34.03;;;;;;;;;;5014352;28;20435;-79
2021/12/20 00:32:04;;;;;;;113.50;33.88;;;;;;;;;;5032091;28;20025;-80
2021/12/20 00:34:30;;;;;;;112.50;35.85;;;;;;;;;;5019995;28;20124;-78
2021/12/20 00:37:02;;;;;;;115.68;36.15;;;;;;;;;;5024564;28;20030;-79
2021/12/20 00:42:14;;;;;;;121.25;35.85;;;;;;;;;;5032019;28;20040;-79
2021/12/20 00:44:41;;;;;;;121.40;35.28;;;;;;;;;;5025627;28;20036;-80
2021/12/20 00:47:08;;;;;;;116.18;36.63;;;;;;;;;;5031553;28;20136;-79
2021/12/20 00:49:34;;;;;;;120.97;37.78;;;;;;;;;;5030761;28;20057;-78
2021/12/20 00:52:00;;;;;;;115.65;36.28;;;;;;;;;;5031514;28;20025;-78
2021/12/20 00:54:27;;;;;;;134.32;37.58;;;;;;;;;;5027628;28;20032;-78
2021/12/20 00:56:53;;;;;;;141.05;39.25;;;;;;;;;;5030570;28;20532;-79
2021/12/20 00:59:20;;;;;;;125.78;40.47;;;;;;;;;;5031061;28;20061;-79
2021/12/20 01:01:46;;;;;;;126.18;39.50;;;;;;;;;;5012122;28;20033;-79
2021/12/20 01:04:12;;;;;;;135.63;44.60;;;;;;;;;;5030697;28;20034;-79
2021/12/20 01:06:38;;;;;;;145.70;44.33;;;;;;;;;;5020623;28;20033;-77
2021/12/20 01:09:05;;;;;;;142.25;41.10;;;;;;;;;;5031777;28;20387;-78
2021/12/20 01:11:38;;;;;;;118.97;36.78;;;;;;;;;;5029700;28;20032;-78
2021/12/20 01:14:04;;;;;;;121.05;35.63;;;;;;;;;;5025509;28;20021;-77
2021/12/20 01:16:32;;;;;;;123.20;33.42;;;;;;;;;;5009396;28;20056;-79
2021/12/20 01:19:00;;;;;;;122.95;32.60;;;;;;;;;;5010405;28;20084;-80
2021/12/20 01:21:26;;;;;;;118.10;27.75;;;;;;;;;;4979279;28;20048;-77
2021/12/20 01:23:53;;;;;;;110.60;29.85;;;;;;;;;;4988572;28;20077;-77
2021/12/20 01:26:19;;;;;;;113.50;27.58;;;;;;;;;;5007850;28;20038;-78
2021/12/20 01:28:45;;;;;;;115.43;27.85;;;;;;;;;;4988796;28;20030;-78
2021/12/20 01:31:12;;;;;;;107.15;27.15;;;;;;;;;;4978909;28;20030;-78
2021/12/20 01:33:40;;;;;;;114.97;28.67;;;;;;;;;;4999220;28;20031;-81
2021/12/20 01:36:07;;;;;;;110.07;32.08;;;;;;;;;;5015014;28;20048;-79
2021/12/20 01:38:33;;;;;;;115.78;30.52;;;;;;;;;;5007540;28;20073;-79
2021/12/20 01:40:59;;;;;;;120.18;30.50;;;;;;;;;;4988730;28;20382;-78
2021/12/20 01:43:26;;;;;;;120.00;29.25;;;;;;;;;;5006998;28;20026;-78
2021/12/20 01:45:52;;;;;;;102.68;27.92;;;;;;;;;;5002277;28;20034;-78
2021/12/20 01:48:20;;;;;;;104.40;27.75;;;;;;;;;;5008956;28;20113;-76
2021/12/20 01:53:33;;;;;;;111.35;30.63;;;;;;;;;;5009085;28;20037;-79
2021/12/20 01:55:59;;;;;;;120.30;32.85;;;;;;;;;;5005612;28;20537;-77
2021/12/20 01:58:27;;;;;;;115.00;32.63;;;;;;;;;;5010662;28;20079;-78
2021/12/20 02:03:33;;;;;;;138.13;38.00;;;;;;;;;;4999467;28;20485;-78
2021/12/20 02:06:04;;;;;;;139.07;35.83;;;;;;;;;;5012423;28;20026;-77
2021/12/20 02:08:30;;;;;;;132.98;36.90;;;;;;;;;;4989341;28;20038;-78
2021/12/20 02:10:59;;;;;;;128.00;34.85;;;;;;;;;;5008307;28;20675;-79
2021/12/20 02:13:28;;;;;;;128.75;31.05;;;;;;;;;;5006049;28;20022;-79
2021/12/20 02:15:55;;;;;;;123.22;31.77;;;;;;;;;;5023096;28;20052;-79
2021/12/20 02:18:22;;;;;;;106.20;28.52;;;;;;;;;;5031263;28;20431;-80
2021/12/20 02:20:48;;;;;;;89.15;24.83;;;;;;;;;;5032740;28;20028;-80
2021/12/20 02:23:14;;;;;;;104.65;26.02;;;;;;;;;;5033428;28;20076;-78
2021/12/20 02:25:41;;;;;;;106.70;26.92;;;;;;;;;;5032088;28;20022;-79
2021/12/20 02:28:09;;;;;;;101.10;25.70;;;;;;;;;;5036065;28;20037;-79
2021/12/20 02:30:48;;;;;;;100.80;24.00;;;;;;;;;;5036497;28;20065;-79
2021/12/20 02:38:45;;;;;;;94.97;22.25;;;;;;;;;;5023392;28;20041;-80
2021/12/20 02:41:13;;;;;;;88.43;20.85;;;;;;;;;;5028161;28;20029;-80
2021/12/20 02:43:42;;;;;;;89.85;20.67;;;;;;;;;;5028829;28;20171;-80
2021/12/20 02:49:15;;;;;;;86.97;22.50;;;;;;;;;;5030999;28;20030;-80
2021/12/20 02:51:42;;;;;;;88.82;23.90;;;;;;;;;;5010955;28;20027;-80
2021/12/20 02:54:09;;;;;;;81.25;23.15;;;;;;;;;;5013654;28;20112;-80
2021/12/20 02:56:36;;;;;;;93.65;23.48;;;;;;;;;;5011571;28;20480;-81
2021/12/20 02:59:03;;;;;;;77.88;21.50;;;;;;;;;;5034009;28;20041;-79
2021/12/20 03:01:29;;;;;;;77.53;23.40;;;;;;;;;;5025736;28;20039;-80
2021/12/20 03:03:56;;;;;;;72.20;22.73;;;;;;;;;;5027991;28;20033;-78
2021/12/20 03:06:26;;;;;;;85.45;26.45;;;;;;;;;;5025712;28;20026;-79
2021/12/20 03:08:54;;;;;;;84.15;27.77;;;;;;;;;;5024413;28;20030;-78
2021/12/20 03:11:23;;;;;;;87.97;28.48;;;;;;;;;;5021981;28;20087;-79
2021/12/20 03:13:53;;;;;;;74.30;24.95;;;;;;;;;;5018387;28;20136;-79
2021/12/20 03:16:20;;;;;;;76.47;24.88;;;;;;;;;;5017777;28;20529;-78
2021/12/20 03:18:47;;;;;;;69.25;23.70;;;;;;;;;;5026407;28;20137;-80
2021/12/20 03:21:13;;;;;;;63.25;25.40;;;;;;;;;;5023180;28;20033;-80
2021/12/20 03:23:40;;;;;;;58.45;22.60;;;;;;;;;;5005418;28;20025;-80
2021/12/20 03:26:06;;;;;;;54.67;20.65;;;;;;;;;;5023542;28;20061;-80
2021/12/20 03:28:32;;;;;;;66.05;22.17;;;;;;;;;;5018108;28;20059;-81
2021/12/20 03:30:59;;;;;;;58.22;19.90;;;;;;;;;;5023878;28;20416;-80
2021/12/20 03:33:25;;;;;;;49.33;18.30;;;;;;;;;;5022741;28;20079;-78
2021/12/20 03:35:51;;;;;;;48.97;20.05;;;;;;;;;;5021976;28;20060;-78
2021/12/20 03:38:18;;;;;;;42.70;17.52;;;;;;;;;;5024638;28;20412;-77
2021/12/20 03:40:44;;;;;;;45.22;15.75;;;;;;;;;;5026334;28;20346;-78
2021/12/20 03:43:12;;;;;;;47.75;16.45;;;;;;;;;;5023158;28;20037;-78
2021/12/20 03:45:40;;;;;;;29.50;13.82;;;;;;;;;;5024803;28;20072;-78
2021/12/20 03:48:07;;;;;;;36.33;14.65;;;;;;;;;;5022531;28;20037;-79
2021/12/20 03:50:33;;;;;;;33.42;13.13;;;;;;;;;;5027088;28;20040;-80
2021/12/20 03:52:59;;;;;;;32.88;12.82;;;;;;;;;;5026059;28;20037;-80
2021/12/20 03:55:26;;;;;;;22.27;11.18;;;;;;;;;;5021023;28;20105;-81
2021/12/20 03:57:52;;;;;;;25.58;12.35;;;;;;;;;;5003003;28;20472;-80
2021/12/20 04:00:18;;;;;;;31.40;13.07;;;;;;;;;;5023668;28;20124;-79
2021/12/20 04:02:47;;;;;;;25.60;13.32;;;;;;;;;;5005500;28;20492;-83
2021/12/20 04:05:14;;;;;;;33.38;14.00;;;;;;;;;;5021670;28;20029;-84
2021/12/20 04:07:41;;;;;;;32.97;14.20;;;;;;;;;;5007171;28;20033;-80
2021/12/20 04:10:07;;;;;;;29.33;12.23;;;;;;;;;;5023386;28;20571;-81
2021/12/20 04:12:34;;;;;;;30.50;13.38;;;;;;;;;;5003487;28;20480;-81
2021/12/20 04:15:00;;;;;;;32.53;15.10;;;;;;;;;;5022324;28;20042;-79
2021/12/20 04:17:26;;;;;;;29.70;14.60;;;;;;;;;;5022811;28;20029;-81
2021/12/20 04:19:53;;;;;;;28.08;14.10;;;;;;;;;;5024617;28;20116;-81
2021/12/20 04:22:19;;;;;;;29.60;14.05;;;;;;;;;;5006612;28;20143;-80
2021/12/20 04:24:46;;;;;;;35.45;14.65;;;;;;;;;;5020037;28;20030;-80
2021/12/20 04:27:12;;;;;;;30.77;15.10;;;;;;;;;;5025612;28;20029;-81
2021/12/20 04:29:39;;;;;;;52.17;27.88;;;;;;;;;;5026223;28;20029;-83
2021/12/20 04:32:05;;;;;;;48.95;27.63;;;;;;;;;;5023444;28;20029;-80
2021/12/20 04:34:32;;;;;;;57.72;28.02;;;;;;;;;;5002121;28;20511;-79
2021/12/20 04:36:58;;;;;;;52.50;27.98;;;;;;;;;;5021047;28;20025;-78
2021/12/20 04:39:29;;;;;;;59.47;30.60;;;;;;;;;;5022110;28;20022;-80
2021/12/20 04:41:56;;;;;;;49.85;29.63;;;;;;;;;;5020261;28;20593;-81
2021/12/20 04:44:22;;;;;;;52.42;28.55;;;;;;;;;;5006625;28;20587;-79
2021/12/20 04:46:49;;;;;;;56.83;30.42;;;;;;;;;;5028625;28;20029;-75
2021/12/20 04:49:16;;;;;;;71.18;34.15;;;;;;;;;;5008728;28;20068;-78
2021/12/20 04:51:43;;;;;;;72.00;34.58;;;;;;;;;;5003556;28;20128;-79
2021/12/20 04:54:09;;;;;;;72.95;37.90;;;;;;;;;;5019880;28;20057;-79
2021/12/20 04:56:36;;;;;;;87.03;43.65;;;;;;;;;;5024170;28;20033;-78
2021/12/20 04:59:02;;;;;;;92.03;42.63;;;;;;;;;;5004922;28;20555;-80
2021/12/20 05:01:28;;;;;;;97.10;43.97;;;;;;;;;;5023664;28;20468;-79
2021/12/20 05:03:55;;;;;;;94.88;45.80;;;;;;;;;;5021737;28;20046;-78
2021/12/20 05:06:21;;;;;;;104.47;45.55;;;;;;;;;;5023598;28;20041;-79
2021/12/20 05:08:50;;;;;;;100.95;46.42;;;;;;;;;;5012003;28;20512;-78
2021/12/20 05:11:19;;;;;;;92.00;43.83;;;;;;;;;;5022742;28;20144;-82
2021/12/20 05:13:46;;;;;;;97.50;42.03;;;;;;;;;;5024076;28;20029;-80
2021/12/20 05:16:13;;;;;;;96.43;41.47;;;;;;;;;;5006564;28;20079;-81
2021/12/20 05:18:40;;;;;;;90.55;40.90;;;;;;;;;;5029093;28;20306;-82
2021/12/20 05:21:06;;;;;;;85.68;38.80;;;;;;;;;;5025879;28;20187;-79
2021/12/20 05:23:33;;;;;;;83.90;38.15;;;;;;;;;;5021390;28;20125;-80
2021/12/20 05:25:59;;;;;;;77.40;32.85;;;;;;;;;;5023585;28;21022;-80
2021/12/20 05:28:26;;;;;;;79.15;34.83;;;;;;;;;;5007877;28;20514;-82
2021/12/20 05:30:53;;;;;;;86.80;35.42;;;;;;;;;;5023083;28;20167;-80
2021/12/20 05:33:23;;;;;;;86.88;34.88;;;;;;;;;;5027545;28;20179;-81
2021/12/20 05:35:51;;;;;;;87.50;35.20;;;;;;;;;;5011816;28;20083;-77
2021/12/20 05:38:17;;;;;;;88.53;33.50;;;;;;;;;;5012895;28;20064;-80
2021/12/20 05:40:43;;;;;;;85.85;37.97;;;;;;;;;;5028643;28;20049;-80
2021/12/20 05:43:10;;;;;;;92.43;37.95;;;;;;;;;;5023887;28;20014;-81
2021/12/20 05:45:36;;;;;;;90.20;35.33;;;;;;;;;;5021944;28;20083;-80
2021/12/20 05:48:03;;;;;;;85.30;35.20;;;;;;;;;;5025166;28;20480;-83
2021/12/20 05:50:29;;;;;;;98.47;36.67;;;;;;;;;;5026203;28;20033;-83
2021/12/20 05:52:56;;;;;;;90.22;34.92;;;;;;;;;;5009900;28;20383;-79
2021/12/20 05:55:22;;;;;;;81.38;30.60;;;;;;;;;;5027217;28;20085;-82
2021/12/20 05:57:49;;;;;;;75.78;31.50;;;;;;;;;;5028214;28;20219;-81
2021/12/20 06:00:18;;;;;;;82.10;33.67;;;;;;;;;;5028907;28;20057;-80
2021/12/20 06:02:46;;;;;;;82.07;31.55;;;;;;;;;;5024273;28;20056;-82
2021/12/20 06:05:12;;;;;;;80.90;33.00;;;;;;;;;;5027694;28;20036;-81
2021/12/20 06:07:41;;;;;;;86.50;32.63;;;;;;;;;;5026645;28;20022;-83
2021/12/20 06:10:09;;;;;;;77.88;30.67;;;;;;;;;;5030577;28;20032;-81
2021/12/20 06:12:35;;;;;;;88.60;33.83;;;;;;;;;;5027151;28;20085;-81
2021/12/20 06:15:02;;;;;;;74.30;31.58;;;;;;;;;;5032359;28;20056;-80
2021/12/20 06:17:29;;;;;;;77.38;32.03;;;;;;;;;;5027921;28;20104;-80
2021/12/20 06:19:55;;;;;;;70.60;30.40;;;;;;;;;;5029513;28;20033;-83
2021/12/20 06:22:21;;;;;;;79.03;30.85;;;;;;;;;;5025981;28;20021;-82
2021/12/20 06:24:48;;;;;;;76.07;29.70;;;;;;;;;;5025120;28;20021;-83
2021/12/20 06:27:14;;;;;;;89.57;33.10;;;;;;;;;;5009757;28;20034;-82
2021/12/20 06:29:41;;;;;;;78.00;30.75;;;;;;;;;;5006522;28;20029;-82
2021/12/20 06:32:07;;;;;;;88.90;30.75;;;;;;;;;;5027756;28;20029;-83
2021/12/20 06:34:35;;;;;;;82.93;29.20;;;;;;;;;;5025482;28;20148;-81
2021/12/20 06:37:02;;;;;;;76.03;27.58;;;;;;;;;;5024019;28;20033;-82
2021/12/20 06:39:30;;;;;;;79.43;27.92;;;;;;;;;;5026208;28;20061;-83
2021/12/20 06:41:57;;;;;;;88.97;28.17;;;;;;;;;;5010198;28;20503;-86
2021/12/20 06:44:24;;;;;;;89.50;29.30;;;;;;;;;;5011479;28;20037;-82
2021/12/20 06:46:51;;;;;;;91.82;31.98;;;;;;;;;;5027736;28;20112;-81
2021/12/20 06:49:17;;;;;;;89.88;31.33;;;;;;;;;;5025879;28;20033;-79
2021/12/20 06:51:44;;;;;;;86.53;29.27;;;;;;;;;;5006114;28;20089;-81
2021/12/20 06:54:15;;;;;;;78.38;29.10;;;;;;;;;;5022453;28;20025;-82
2021/12/20 06:56:42;;;;;;;76.18;27.33;;;;;;;;;;5022277;28;20032;-82
2021/12/20 06:59:09;;;;;;;74.60;25.90;;;;;;;;;;5021002;28;20692;-83
2021/12/20 07:01:36;;;;;;;99.85;30.08;;;;;;;;;;5006515;28;20060;-81
2021/12/20 07:04:02;;;;;;;82.72;27.52;;;;;;;;;;5009707;28;20037;-80
2021/12/20 07:06:29;;;;;;;73.55;27.08;;;;;;;;;;5027516;28;20029;-83
2021/12/20 07:08:55;;;;;;;66.38;27.33;;;;;;;;;;5025061;28;20030;-81
2021/12/20 07:11:22;;;;;;;74.68;29.23;;;;;;;;;;5019362;28;20022;-81
2021/12/20 07:13:48;;;;;;;90.72;29.60;;;;;;;;;;5008653;28;20025;-80
2021/12/20 07:16:15;;;;;;;88.97;29.45;;;;;;;;;;5007557;28;20105;-79
2021/12/20 07:18:42;;;;;;;81.28;28.55;;;;;;;;;;5026939;28;20033;-80
2021/12/20 07:21:08;;;;;;;86.15;25.65;;;;;;;;;;5023862;28;20124;-82
2021/12/20 07:23:34;;;;;;;85.93;27.95;;;;;;;;;;5021177;28;20048;-83
2021/12/20 07:26:01;;;;;;;95.90;33.33;;;;;;;;;;5025983;28;20025;-81
2021/12/20 07:28:28;;;;;;;95.10;34.00;;;;;;;;;;5021822;28;20025;-86
2021/12/20 07:30:54;;;;;;;97.88;35.78;;;;;;;;;;5003016;28;20026;-82
2021/12/20 07:33:20;;;;;;;94.20;33.83;;;;;;;;;;5020716;28;20111;-79
2021/12/20 07:35:48;;;;;;;68.10;24.58;;;;;;;;;;5021089;28;21327;-80
2021/12/20 07:38:15;;;;;;;81.93;29.40;;;;;;;;;;5027793;28;20110;-81
2021/12/20 07:40:48;;;;;;;82.70;27.55;;;;;;;;;;5024015;28;20029;-80
2021/12/20 07:43:16;;;;;;;81.20;25.70;;;;;;;;;;5031009;28;20025;-80
2021/12/20 07:45:42;;;;;;;91.15;28.20;;;;;;;;;;5030297;28;20022;-81
2021/12/20 07:48:09;;;;;;;88.03;27.38;;;;;;;;;;4998090;28;20029;-80
2021/12/20 07:50:36;;;;;;;77.15;28.52;;;;;;;;;;5032420;28;20120;-80
2021/12/20 07:53:02;;;;;;;87.93;27.42;;;;;;;;;;5014269;28;20129;-81
2021/12/20 07:55:29;;;;;;;82.70;27.13;;;;;;;;;;5030206;28;20092;-80
2021/12/20 07:57:55;;;;;;;73.18;26.38;;;;;;;;;;5008112;28;20383;-82
2021/12/20 08:00:22;;;;;;;80.15;27.98;;;;;;;;;;5023408;28;20029;-80
2021/12/20 08:02:48;;;;;;;79.78;25.92;;;;;;;;;;5022959;28;20025;-81
2021/12/20 08:05:15;;;;;;;89.22;26.50;;;;;;;;;;5021931;28;20062;-82
2021/12/20 08:07:41;;;;;;;83.15;27.48;;;;;;;;;;5023515;28;20030;-81
2021/12/20 08:10:10;;;;;;;83.00;26.58;;;;;;;;;;5022532;28;20116;-80
2021/12/20 08:12:36;;;;;;;74.13;23.95;;;;;;;;;;5024810;28;20044;-81
2021/12/20 08:15:03;;;;;;;72.25;25.63;;;;;;;;;;4998763;28;20429;-80
2021/12/20 08:17:31;;;;;;;82.28;25.40;;;;;;;;;;5000853;28;20030;-81
2021/12/20 08:19:58;;;;;;;78.85;26.05;;;;;;;;;;4982923;28;20033;-78
2021/12/20 08:22:25;;;;;;;73.97;25.90;;;;;;;;;;5002449;28;20030;-79
2021/12/20 08:24:52;;;;;;;78.72;29.05;;;;;;;;;;5008048;28;20393;-80
2021/12/20 08:27:18;;;;;;;71.72;28.42;;;;;;;;;;5008275;28;20356;-80
2021/12/20 08:29:45;;;;;;;61.65;24.25;;;;;;;;;;5008822;28;20071;-82
2021/12/20 08:32:11;;;;;;;75.85;29.40;;;;;;;;;;5006064;28;20029;-83
2021/12/20 08:34:38;;;;;;;75.47;27.70;;;;;;;;;;4987429;28;20026;-79
2021/12/20 08:37:04;;;;;;;73.32;28.85;;;;;;;;;;5007069;28;20049;-81
2021/12/20 08:39:33;;;;;;;72.07;29.45;;;;;;;;;;5005386;28;20431;-82
2021/12/20 08:41:59;;;;;;;74.28;26.25;;;;;;;;;;4997613;28;20025;-81
2021/12/20 08:44:28;;;;;;;71.82;29.70;;;;;;;;;;5005914;28;20059;-80
2021/12/20 08:46:55;;;;;;;69.60;27.25;;;;;;;;;;4988931;28;20044;-86
2021/12/20 08:49:21;;;;;;;78.30;25.27;;;;;;;;;;5003701;28;20026;-81
2021/12/20 08:51:48;;;;;;;60.55;24.95;;;;;;;;;;5002487;28;20461;-81
2021/12/20 08:54:15;;;;;;;63.75;23.27;;;;;;;;;;5001860;28;20192;-81
2021/12/20 08:56:41;;;;;;;65.43;24.23;;;;;;;;;;5005424;28;20488;-80
2021/12/20 08:59:08;;;;;;;62.53;26.17;;;;;;;;;;5003385;28;20042;-79
2021/12/20 09:01:35;;;;;;;64.00;24.77;;;;;;;;;;4998995;28;20034;-82
2021/12/20 09:04:03;;;;;;;65.45;26.13;;;;;;;;;;4999672;28;20081;-79
2021/12/20 09:06:31;;;;;;;73.03;24.45;;;;;;;;;;4984049;28;20030;-81
2021/12/20 09:08:58;;;;;;;68.45;23.23;;;;;;;;;;5002784;28;20038;-81
2021/12/20 09:11:28;;;;;;;59.63;22.20;;;;;;;;;;4992023;28;20482;-80
2021/12/20 09:13:55;;;;;;;66.45;23.48;;;;;;;;;;5008850;28;20033;-80
2021/12/20 09:16:21;;;;;;;61.28;21.33;;;;;;;;;;5014342;28;20045;-82
2021/12/20 09:18:48;;;;;;;56.80;21.75;;;;;;;;;;5022761;28;20036;-83
2021/12/20 09:21:15;;;;;;;50.60;20.83;;;;;;;;;;5024934;28;20068;-83
2021/12/20 09:23:43;;;;;;;51.03;20.30;;;;;;;;;;5026011;28;20025;-84
2021/12/20 09:26:09;;;;;;;50.90;19.10;;;;;;;;;;5022311;28;20045;-82
2021/12/20 09:28:35;;;;;;;54.85;20.80;;;;;;;;;;5019379;28;20022;-79
2021/12/20 09:31:02;;;;;;;42.83;18.25;;;;;;;;;;5005457;28;20183;-80
2021/12/20 09:33:29;;;;;;;53.13;20.27;;;;;;;;;;5024110;28;20091;-80
2021/12/20 09:35:55;;;;;;;56.35;20.48;;;;;;;;;;5025088;28;20025;-82
2021/12/20 09:38:23;;;;;;;60.67;21.42;;;;;;;;;;5025448;28;20036;-83
2021/12/20 09:41:15;;;;;;;54.08;20.00;;;;;;;;;;5026623;28;20420;-82
2021/12/20 09:43:47;;;;;;;60.67;21.83;;;;;;;;;;5030337;28;20107;-81
2021/12/20 09:46:14;;;;;;;53.30;20.85;;;;;;;;;;5033728;28;20026;-81
2021/12/20 09:48:49;;;;;;;66.75;21.95;;;;;;;;;;5025569;28;20021;-80
2021/12/20 09:51:17;;;;;;;49.53;21.98;;;;;;;;;;5025414;28;20508;-82
2021/12/20 09:53:43;;;;;;;58.60;22.77;;;;;;;;;;5024842;28;20377;-83
2021/12/20 09:56:11;;;;;;;52.55;21.77;;;;;;;;;;5026252;28;20029;-80
2021/12/20 09:58:39;;;;;;;59.70;23.90;;;;;;;;;;5029248;28;20373;-81
2021/12/20 10:01:06;;;;;;;54.60;21.83;;;;;;;;;;5028303;28;20032;-83
2021/12/20 10:03:33;;;;;;;62.30;22.98;;;;;;;;;;5008002;28;20115;-79
2021/12/20 10:06:00;;;;;;;56.40;22.73;;;;;;;;;;5025448;28;20108;-81
2021/12/20 10:08:34;;;;;;;56.60;23.52;;;;;;;;;;5028897;28;20092;-83
2021/12/20 10:11:17;;;;;;;56.80;23.08;;;;;;;;;;5020494;28;20488;-83
2021/12/20 10:13:44;;;;;;;51.22;23.55;;;;;;;;;;5006279;28;20695;-81
2021/12/20 10:16:18;;;;;;;47.85;21.17;;;;;;;;;;5025700;28;20073;-81
2021/12/20 10:18:44;;;;;;;56.10;22.23;;;;;;;;;;5008893;28;20034;-82
2021/12/20 10:21:11;;;;;;;52.95;21.83;;;;;;;;;;5026723;28;20425;-80
2021/12/20 10:23:50;;;;;;;65.22;24.67;;;;;;;;;;5024103;28;20408;-80
2021/12/20 10:26:19;;;;;;;68.90;24.33;;;;;;;;;;5021831;28;20020;-80
2021/12/20 10:28:47;;;;;;;64.18;26.65;;;;;;;;;;5024460;28;20025;-81
2021/12/20 10:31:15;;;;;;;65.68;28.17;;;;;;;;;;5024769;28;20436;-80
2021/12/20 10:33:42;;;;;;;57.22;24.60;;;;;;;;;;5027431;28;20030;-80
2021/12/20 10:36:10;;;;;;;69.28;26.30;;;;;;;;;;5022239;28;20104;-80
2021/12/20 10:38:42;;;;;;;51.65;22.08;;;;;;;;;;5024634;28;20507;-83
2021/12/20 10:41:12;;;;;;;49.63;22.95;;;;;;;;;;5006214;28;20052;-81
2021/12/20 10:43:45;;;;;;;49.35;19.98;;;;;;;;;;5028136;28;20036;-82
2021/12/20 10:46:15;;;;;;;45.40;19.10;;;;;;;;;;5027621;28;20037;-81
2021/12/20 10:48:42;;;;;;;52.17;21.42;;;;;;;;;;5008336;28;20059;-81
2021/12/20 10:51:38;;;;;;;46.90;20.63;;;;;;;;;;5027804;28;20042;-82
2021/12/20 10:54:09;;;;;;;60.15;21.38;;;;;;;;;;5007165;28;20435;-82
2021/12/20 10:56:37;;;;;;;58.22;20.48;;;;;;;;;;5026971;28;20068;-81
2021/12/20 10:59:07;;;;;;;48.03;20.73;;;;;;;;;;5025590;28;20435;-80
2021/12/20 11:04:11;;;;;;;48.60;20.83;;;;;;;;;;5025224;28;20041;-82
2021/12/20 11:09:18;;;;;;;56.40;21.80;;;;;;;;;;5026896;28;20105;-80
2021/12/20 11:11:47;;;;;;;51.92;20.77;;;;;;;;;;5021154;28;20484;-80
2021/12/20 11:14:14;;;;;;;52.30;21.65;;;;;;;;;;5000374;28;20033;-80
2021/12/20 11:16:45;;;;;;;58.55;21.77;;;;;;;;;;5021501;28;20046;-81
2021/12/20 11:19:13;;;;;;;48.85;22.33;;;;;;;;;;5029142;28;20032;-80
2021/12/20 11:21:50;;;;;;;61.00;23.25;;;;;;;;;;5020940;28;20499;-82
2021/12/20 11:24:25;;;;;;;59.63;23.63;;;;;;;;;;5024763;28;20034;-81
2021/12/20 11:26:52;;;;;;;59.40;26.92;;;;;;;;;;5023454;28;20044;-83
2021/12/20 11:29:19;;;;;;;56.92;26.05;;;;;;;;;;5022117;28;20465;-80
2021/12/20 11:31:46;;;;;;;80.00;27.83;;;;;;;;;;5008754;28;20566;-81
2021/12/20 11:34:13;;;;;;;64.70;27.90;;;;;;;;;;5025283;28;20028;-81
2021/12/20 11:36:39;;;;;;;64.97;26.20;;;;;;;;;;5027122;28;20041;-82
2021/12/20 11:39:08;;;;;;;58.25;26.60;;;;;;;;;;5022406;28;20037;-82
2021/12/20 11:41:35;;;;;;;58.95;25.88;;;;;;;;;;5021347;28;20025;-81
2021/12/20 11:44:02;;;;;;;52.28;24.83;;;;;;;;;;5023272;28;20095;-81
2021/12/20 11:46:41;;;;;;;53.92;27.00;;;;;;;;;;5005788;28;20037;-81
2021/12/20 11:49:08;;;;;;;56.13;28.85;;;;;;;;;;5002225;28;20029;-81
2021/12/20 11:51:52;;;;;;;62.92;28.15;;;;;;;;;;5021605;28;20040;-80
2021/12/20 11:54:36;;;;;;;64.25;31.10;;;;;;;;;;5022667;28;20026;-81
2021/12/20 11:57:03;;;;;;;69.88;32.30;;;;;;;;;;5019697;28;20036;-80
2021/12/20 11:59:51;;;;;;;65.40;31.42;;;;;;;;;;5007509;28;20039;-81
2021/12/20 12:02:21;;;;;;;73.95;34.50;;;;;;;;;;5026606;28;20041;-80
2021/12/20 12:05:01;;;;;;;63.10;34.08;;;;;;;;;;5020579;28;20112;-82
2021/12/20 12:07:31;;;;;;;78.90;38.17;;;;;;;;;;5026387;28;20026;-81
2021/12/20 12:09:59;;;;;;;90.35;40.58;;;;;;;;;;5023747;28;20542;-81
2021/12/20 12:12:26;;;;;;;74.32;36.55;;;;;;;;;;5026024;28;20036;-83
2021/12/20 12:15:07;;;;;;;74.35;37.38;;;;;;;;;;5030669;28;20490;-81
2021/12/20 12:17:53;;;;;;;82.45;41.75;;;;;;;;;;5023084;28;20132;-85
2021/12/20 12:20:38;;;;;;;94.90;50.65;;;;;;;;;;5010904;28;20116;-82
2021/12/20 12:23:17;;;;;;;61.38;35.13;;;;;;;;;;5028870;28;20029;-84
2021/12/20 12:25:47;;;;;;;58.95;30.90;;;;;;;;;;5024314;28;20029;-83
2021/12/20 12:28:14;;;;;;;69.50;34.08;;;;;;;;;;5012571;28;20047;-80
2021/12/20 12:30:42;;;;;;;62.17;33.88;;;;;;;;;;5031372;28;20018;-80
2021/12/20 12:33:14;;;;;;;59.17;33.10;;;;;;;;;;5012083;28;20084;-81
2021/12/20 12:35:47;;;;;;;68.90;33.58;;;;;;;;;;5028571;28;20021;-81
2021/12/20 12:38:14;;;;;;;63.28;35.53;;;;;;;;;;5027932;28;20026;-84
2021/12/20 12:40:42;;;;;;;56.88;33.13;;;;;;;;;;5027764;28;20033;-80
2021/12/20 12:43:09;;;;;;;66.57;32.90;;;;;;;;;;5022739;28;20065;-80
2021/12/20 12:45:50;;;;;;;60.25;31.17;;;;;;;;;;5024904;28;20444;-79
2021/12/20 12:48:39;;;;;;;64.53;36.72;;;;;;;;;;5025964;28;20160;-85
2021/12/20 12:51:08;;;;;;;67.03;35.40;;;;;;;;;;5029912;28;20507;-79
2021/12/20 12:53:42;;;;;;;60.90;36.15;;;;;;;;;;5012713;28;20037;-81
2021/12/20 12:56:26;;;;;;;71.57;37.28;;;;;;;;;;5030046;28;20024;-81
2021/12/20 12:59:11;;;;;;;62.90;35.53;;;;;;;;;;5028653;28;20029;-80
2021/12/20 13:01:47;;;;;;;55.60;32.05;;;;;;;;;;5024469;28;20030;-80
2021/12/20 13:04:13;;;;;;;60.35;34.00;;;;;;;;;;5030085;28;20075;-82
2021/12/20 13:06:39;;;;;;;63.83;33.95;;;;;;;;;;5031152;28;20037;-79
2021/12/20 13:09:06;;;;;;;62.63;35.10;;;;;;;;;;5031740;28;20028;-80
2021/12/20 13:11:32;;;;;;;78.13;40.90;;;;;;;;;;5031370;28;20041;-81
2021/12/20 13:14:30;;;;;;;68.20;39.55;;;;;;;;;;5031839;28;20124;-81
2021/12/20 13:17:00;;;;;;;74.88;40.50;;;;;;;;;;5010557;28;20056;-81
2021/12/20 13:19:34;;;;;;;79.00;39.83;;;;;;;;;;5014187;28;20428;-80
2021/12/20 13:22:03;;;;;;;84.25;42.17;;;;;;;;;;5014766;28;20026;-81
2021/12/20 13:24:29;;;;;;;73.10;39.58;;;;;;;;;;5012072;28;20088;-81
2021/12/20 13:27:05;;;;;;;76.40;40.10;;;;;;;;;;4993478;28;20093;-79
2021/12/20 13:29:32;;;;;;;66.25;35.83;;;;;;;;;;4994024;28;20033;-80
2021/12/20 13:32:09;;;;;;;58.22;32.17;;;;;;;;;;5014689;28;20030;-80
2021/12/20 13:34:35;;;;;;;49.15;30.77;;;;;;;;;;5010503;28;20026;-81
2021/12/20 13:37:08;;;;;;;44.20;27.77;;;;;;;;;;5013437;28;20524;-80
2021/12/20 13:39:35;;;;;;;53.00;31.55;;;;;;;;;;5010160;28;20079;-78
2021/12/20 13:42:08;;;;;;;53.47;30.25;;;;;;;;;;5013019;28;20033;-81
2021/12/20 13:44:35;;;;;;;60.50;30.95;;;;;;;;;;5003703;28;20034;-81
2021/12/20 13:47:04;;;;;;;57.08;33.63;;;;;;;;;;5013178;28;20045;-80
2021/12/20 13:49:31;;;;;;;61.92;35.47;;;;;;;;;;5014711;28;20028;-79
2021/12/20 13:51:58;;;;;;;62.65;33.90;;;;;;;;;;4992803;28;20028;-83
2021/12/20 13:54:32;;;;;;;62.33;35.80;;;;;;;;;;5013101;28;20022;-79
2021/12/20 13:57:14;;;;;;;67.22;34.83;;;;;;;;;;4997521;28;20046;-78
2021/12/20 13:59:40;;;;;;;68.55;34.67;;;;;;;;;;5010743;28;20026;-80
2021/12/20 14:02:11;;;;;;;66.93;35.25;;;;;;;;;;5015226;28;20094;-82
2021/12/20 14:04:48;;;;;;;59.30;33.35;;;;;;;;;;5012611;28;20112;-80
2021/12/20 14:07:25;;;;;;;58.67;33.10;;;;;;;;;;5014260;28;20133;-78
2021/12/20 14:10:10;;;;;;;62.35;33.38;;;;;;;;;;5012136;28;20072;-79
2021/12/20 14:12:41;;;;;;;63.55;32.08;;;;;;;;;;5008011;28;20029;-80
2021/12/20 14:15:37;;;;;;;65.57;32.28;;;;;;;;;;5009762;28;20045;-81
2021/12/20 14:18:07;;;;;;;57.67;32.30;;;;;;;;;;5006587;28;20045;-81
2021/12/20 14:20:44;;;;;;;54.30;28.65;;;;;;;;;;5034471;28;20057;-83
2021/12/20 14:23:16;;;;;;;62.17;32.63;;;;;;;;;;5023902;28;20142;-78
2021/12/20 14:25:43;;;;;;;58.05;32.85;;;;;;;;;;5014825;28;20040;-80
2021/12/20 14:28:12;;;;;;;60.08;32.38;;;;;;;;;;5026579;28;20051;-81
2021/12/20 14:30:50;;;;;;;54.28;29.20;;;;;;;;;;5031486;28;20031;-78
2021/12/20 14:33:25;;;;;;;54.88;28.67;;;;;;;;;;5024405;28;20552;-80
2021/12/20 14:36:01;;;;;;;54.58;28.38;;;;;;;;;;5013827;28;20366;-79
2021/12/20 14:38:35;;;;;;;59.00;31.00;;;;;;;;;;5033137;28;20057;-80
2021/12/20 14:41:10;;;;;;;62.55;32.17;;;;;;;;;;5034364;28;20040;-79
2021/12/20 14:43:38;;;;;;;72.20;36.83;;;;;;;;;;5034829;28;20480;-79